createdAt,value
2023-03-11T00:00:22.372Z,77.74
2023-03-11T00:01:25.498Z,77.03
2023-03-11T00:02:27.878Z,75.97
2023-03-11T00:03:30.523Z,75.37
2023-03-11T00:04:32.958Z,75.12
2023-03-11T00:05:37.829Z,74.46
2023-03-11T00:06:40.216Z,74.76
2023-03-11T00:07:42.980Z,74.66
2023-03-11T00:08:45.365Z,73.98
2023-03-11T00:09:47.725Z,73.58
2023-03-11T00:10:55.648Z,73.38
2023-03-11T00:11:57.992Z,73.41
2023-03-11T00:13:01.486Z,72.69
2023-03-11T00:14:03.857Z,72.41
2023-03-11T00:15:06.604Z,71.61
2023-03-11T00:16:10.049Z,71.04
2023-03-11T00:17:12.449Z,71.05
2023-03-11T00:18:15.246Z,70.36
2023-03-11T00:19:17.566Z,69.65
2023-03-11T00:20:29.723Z,69.23
2023-03-11T00:21:32.241Z,68.83
2023-03-11T00:22:34.800Z,68.61
2023-03-11T00:23:37.099Z,68.98
2023-03-11T00:24:39.438Z,69.32
2023-03-11T00:25:43.930Z,68.85
2023-03-11T00:26:46.265Z,68.60
2023-03-11T00:28:10.608Z,68.50
2023-03-11T00:29:13.466Z,68.73
2023-03-11T00:30:17.594Z,68.38
2023-03-11T00:31:40.640Z,68.10
2023-03-11T00:32:43.817Z,68.01
2023-03-11T00:33:46.209Z,67.91
2023-03-11T00:34:48.534Z,67.74
2023-03-11T00:35:51.074Z,67.62
2023-03-11T00:36:53.387Z,67.43
2023-03-11T00:37:58.000Z,67.33
2023-03-11T00:39:02.641Z,67.13
2023-03-11T00:40:08.876Z,67.23
2023-03-11T00:41:11.231Z,67.37
2023-03-11T00:42:13.598Z,66.82
2023-03-11T00:43:17.166Z,66.96
2023-03-11T00:44:19.514Z,66.78
2023-03-11T00:45:22.168Z,66.99
2023-03-11T00:46:24.576Z,66.93
2023-03-11T00:47:26.974Z,66.76
2023-03-11T00:48:29.380Z,66.98
2023-03-11T00:49:31.890Z,66.94
2023-03-11T00:50:36.850Z,67.06
2023-03-11T00:51:39.332Z,67.06
2023-03-11T00:52:41.747Z,67.18
2023-03-11T00:53:44.942Z,67.13
2023-03-11T00:54:47.331Z,67.18
2023-03-11T00:55:49.685Z,67.36
2023-03-11T00:56:52.042Z,67.05
2023-03-11T00:57:56.211Z,66.91
2023-03-11T00:58:58.594Z,67.23
2023-03-11T01:00:00.955Z,67.33
2023-03-11T01:01:16.832Z,67.30
2023-03-11T01:02:19.189Z,67.32
2023-03-11T01:03:21.577Z,67.15
2023-03-11T01:04:23.945Z,67.30
2023-03-11T01:05:29.405Z,67.50
2023-03-11T01:06:43.136Z,67.53
2023-03-11T01:07:47.610Z,67.52
2023-03-11T01:08:49.991Z,67.62
2023-03-11T01:09:52.380Z,67.65
2023-03-11T01:10:55.452Z,67.69
2023-03-11T01:11:57.818Z,67.29
2023-03-11T01:13:00.150Z,66.93
2023-03-11T01:14:02.516Z,66.80
2023-03-11T01:15:06.170Z,66.82
2023-03-11T01:16:09.382Z,66.80
2023-03-11T01:17:11.842Z,65.80
2023-03-11T01:18:14.346Z,64.33
2023-03-11T01:19:16.686Z,64.39
2023-03-11T01:20:19.178Z,64.58
2023-03-11T01:21:21.532Z,64.92
2023-03-11T01:22:23.881Z,65.06
2023-03-11T01:23:26.240Z,64.82
2023-03-11T01:24:28.609Z,64.67
2023-03-11T01:25:31.288Z,64.05
2023-03-11T01:26:33.617Z,64.26
2023-03-11T01:27:36.094Z,64.11
2023-03-11T01:28:38.470Z,63.83
2023-03-11T01:29:40.790Z,63.27
2023-03-11T01:30:44.118Z,63.33
2023-03-11T01:31:46.472Z,63.38
2023-03-11T01:32:49.799Z,62.62
2023-03-11T01:33:52.141Z,62.44
2023-03-11T01:34:54.501Z,62.41
2023-03-11T01:35:57.003Z,61.98
2023-03-11T01:36:59.507Z,62.02
2023-03-11T01:38:01.923Z,62.72
2023-03-11T01:39:04.485Z,62.21
2023-03-11T01:40:09.737Z,61.74
2023-03-11T01:41:13.128Z,61.76
2023-03-11T01:42:15.458Z,61.72
2023-03-11T01:43:39.944Z,61.90
2023-03-11T01:44:42.258Z,61.81
2023-03-11T01:45:50.629Z,61.47
2023-03-11T01:46:53.108Z,61.40
2023-03-11T01:47:55.696Z,61.28
2023-03-11T01:48:59.649Z,60.74
2023-03-11T01:50:05.176Z,60.70
2023-03-11T01:51:07.877Z,60.53
2023-03-11T01:52:10.310Z,60.40
2023-03-11T01:53:14.025Z,60.78
2023-03-11T01:54:21.311Z,61.00
2023-03-11T01:55:23.642Z,60.68
2023-03-11T01:56:26.201Z,60.66
2023-03-11T01:57:28.545Z,60.58
2023-03-11T01:58:37.800Z,60.58
2023-03-11T01:59:45.364Z,60.28
2023-03-11T02:00:47.795Z,60.20
2023-03-11T02:02:05.327Z,60.30
2023-03-11T02:03:14.873Z,60.33
2023-03-11T02:04:18.726Z,60.24
2023-03-11T02:05:25.000Z,60.20
2023-03-11T02:06:27.337Z,60.57
2023-03-11T02:07:30.266Z,60.28
2023-03-11T02:08:34.380Z,60.40
2023-03-11T02:09:36.788Z,60.60
2023-03-11T02:10:41.817Z,60.33
2023-03-11T02:11:44.173Z,60.46
2023-03-11T02:12:47.307Z,60.63
2023-03-11T02:13:49.953Z,60.28
2023-03-11T02:14:54.657Z,60.02
2023-03-11T02:15:57.421Z,60.28
2023-03-11T02:17:00.752Z,60.25
2023-03-11T02:18:07.304Z,60.28
2023-03-11T02:19:43.002Z,60.15
2023-03-11T02:20:53.015Z,60.14
2023-03-11T02:21:56.613Z,60.14
2023-03-11T02:23:01.414Z,60.17
2023-03-11T02:24:14.740Z,60.27
2023-03-11T02:25:26.626Z,59.84
2023-03-11T02:26:57.915Z,59.80
2023-03-11T02:28:01.673Z,59.82
2023-03-11T02:29:06.820Z,59.91
2023-03-11T02:30:12.250Z,60.11
2023-03-11T02:31:15.698Z,60.11
2023-03-11T02:32:18.724Z,59.94
2023-03-11T02:33:21.769Z,60.28
2023-03-11T02:34:34.836Z,59.52
2023-03-11T02:35:37.326Z,59.71
2023-03-11T02:36:42.806Z,60.02
2023-03-11T02:37:49.679Z,59.79
2023-03-11T02:38:52.146Z,59.56
2023-03-11T02:39:55.070Z,59.32
2023-03-11T02:40:59.693Z,59.16
2023-03-11T02:42:06.860Z,59.20
2023-03-11T02:43:15.288Z,59.21
2023-03-11T02:44:17.700Z,59.16
2023-03-11T02:45:24.483Z,59.33
2023-03-11T02:46:27.100Z,59.44
2023-03-11T02:47:29.571Z,59.42
2023-03-11T02:48:32.043Z,59.30
2023-03-11T02:49:34.830Z,59.30
2023-03-11T02:50:37.986Z,59.10
2023-03-11T02:51:40.381Z,58.94
2023-03-11T02:52:42.736Z,59.13
2023-03-11T02:53:51.290Z,59.13
2023-03-11T02:54:53.660Z,59.61
2023-03-11T02:55:56.049Z,59.11
2023-03-11T02:56:58.415Z,59.23
2023-03-11T02:58:00.896Z,59.39
2023-03-11T02:59:03.265Z,59.16
2023-03-11T03:00:12.376Z,59.04
2023-03-11T03:01:14.894Z,58.88
2023-03-11T03:02:17.249Z,59.02
2023-03-11T03:03:19.679Z,58.70
2023-03-11T03:04:22.033Z,58.82
2023-03-11T03:05:24.370Z,58.79
2023-03-11T03:06:28.656Z,59.15
2023-03-11T03:07:30.988Z,59.10
2023-03-11T03:08:33.373Z,59.14
2023-03-11T03:09:36.399Z,59.13
2023-03-11T03:10:38.811Z,58.89
2023-03-11T03:11:41.178Z,58.19
2023-03-11T03:12:43.520Z,58.41
2023-03-11T03:13:45.876Z,58.53
2023-03-11T03:14:48.238Z,58.15
2023-03-11T03:15:50.587Z,58.06
2023-03-11T03:16:53.102Z,57.97
2023-03-11T03:17:55.541Z,58.25
2023-03-11T03:18:57.876Z,58.21
2023-03-11T03:20:00.186Z,58.16
2023-03-11T03:21:02.498Z,57.85
2023-03-11T03:22:04.920Z,57.80
2023-03-11T03:23:07.258Z,56.86
2023-03-11T03:24:09.666Z,56.73
2023-03-11T03:25:12.119Z,55.84
2023-03-11T03:26:14.897Z,56.17
2023-03-11T03:27:17.300Z,56.22
2023-03-11T03:28:19.684Z,56.29
2023-03-11T03:29:22.064Z,56.31
2023-03-11T03:30:24.494Z,56.46
2023-03-11T03:31:26.834Z,55.84
2023-03-11T03:32:29.216Z,54.98
2023-03-11T03:33:32.402Z,54.56
2023-03-11T03:34:34.813Z,54.40
2023-03-11T03:35:41.370Z,54.26
2023-03-11T03:36:43.775Z,54.05
2023-03-11T03:37:46.134Z,54.12
2023-03-11T03:38:48.525Z,54.28
2023-03-11T03:39:50.903Z,54.40
2023-03-11T03:40:53.288Z,52.98
2023-03-11T03:41:55.731Z,52.95
2023-03-11T03:42:58.105Z,53.22
2023-03-11T03:44:00.517Z,52.96
2023-03-11T03:45:05.217Z,53.11
2023-03-11T03:46:07.648Z,53.03
2023-03-11T03:47:09.989Z,52.11
2023-03-11T03:48:12.408Z,52.08
2023-03-11T03:49:14.765Z,52.17
2023-03-11T03:50:17.211Z,52.12
2023-03-11T03:51:19.559Z,51.53
2023-03-11T03:52:21.914Z,51.41
2023-03-11T03:53:24.332Z,51.46
2023-03-11T03:54:26.723Z,51.10
2023-03-11T03:55:29.075Z,50.28
2023-03-11T03:56:31.436Z,49.41
2023-03-11T03:57:33.775Z,49.25
2023-03-11T03:58:36.559Z,49.35
2023-03-11T03:59:39.179Z,49.28
2023-03-11T04:00:41.592Z,48.97
2023-03-11T04:01:44.018Z,47.97
2023-03-11T04:02:46.366Z,47.43
2023-03-11T04:03:48.778Z,47.20
2023-03-11T04:04:51.109Z,47.64
2023-03-11T04:05:54.006Z,47.93
2023-03-11T04:06:56.413Z,47.81
2023-03-11T04:07:58.761Z,47.23
2023-03-11T04:09:01.121Z,47.49
2023-03-11T04:10:04.466Z,46.69
2023-03-11T04:11:06.860Z,46.97
2023-03-11T04:12:14.325Z,46.43
2023-03-11T04:13:16.647Z,46.65
2023-03-11T04:14:18.964Z,46.94
2023-03-11T04:15:21.334Z,47.26
2023-03-11T04:16:24.852Z,47.46
2023-03-11T04:17:27.301Z,47.33
2023-03-11T04:18:29.659Z,47.16
2023-03-11T04:19:32.601Z,47.41
2023-03-11T04:20:34.919Z,47.46
2023-03-11T04:21:37.268Z,47.47
2023-03-11T04:22:39.654Z,47.67
2023-03-11T04:23:42.157Z,47.01
2023-03-11T04:24:44.550Z,47.34
2023-03-11T04:25:46.962Z,47.77
2023-03-11T04:26:49.473Z,47.72
2023-03-11T04:27:52.416Z,47.37
2023-03-11T04:28:54.867Z,47.23
2023-03-11T04:29:57.168Z,46.60
2023-03-11T04:30:59.520Z,46.52
2023-03-11T04:32:01.876Z,46.47
2023-03-11T04:33:04.217Z,46.46
2023-03-11T04:34:06.790Z,46.15
2023-03-11T04:35:09.402Z,45.85
2023-03-11T04:36:12.106Z,45.71
2023-03-11T04:37:14.546Z,46.35
2023-03-11T04:38:17.133Z,46.85
2023-03-11T04:39:19.518Z,47.04
2023-03-11T04:40:21.817Z,47.23
2023-03-11T04:41:24.378Z,47.41
2023-03-11T04:42:27.391Z,46.65
2023-03-11T04:43:29.796Z,46.37
2023-03-11T04:44:32.126Z,46.71
2023-03-11T04:45:36.634Z,46.85
2023-03-11T04:46:39.095Z,46.22
2023-03-11T04:47:41.514Z,46.60
2023-03-11T04:48:43.886Z,46.08
2023-03-11T04:49:46.267Z,44.92
2023-03-11T04:50:48.582Z,44.98
2023-03-11T04:51:50.923Z,45.48
2023-03-11T04:52:53.375Z,45.18
2023-03-11T04:53:55.716Z,44.31
2023-03-11T04:54:58.352Z,43.91
2023-03-11T04:56:00.774Z,44.46
2023-03-11T04:57:03.088Z,44.86
2023-03-11T04:58:05.613Z,45.45
2023-03-11T04:59:07.950Z,45.38
2023-03-11T05:00:12.683Z,44.95
2023-03-11T05:01:15.041Z,44.23
2023-03-11T05:02:17.423Z,43.28
2023-03-11T05:03:20.179Z,43.10
2023-03-11T05:04:22.631Z,43.01
2023-03-11T05:05:24.982Z,42.06
2023-03-11T05:06:27.399Z,42.10
2023-03-11T05:07:29.786Z,42.27
2023-03-11T05:08:32.215Z,41.99
2023-03-11T05:09:35.289Z,42.09
2023-03-11T05:10:37.682Z,41.17
2023-03-11T05:11:40.050Z,41.24
2023-03-11T05:12:42.442Z,40.98
2023-03-11T05:13:45.146Z,41.08
2023-03-11T05:14:47.507Z,41.24
2023-03-11T05:15:49.898Z,41.51
2023-03-11T05:16:52.265Z,41.79
2023-03-11T05:17:54.605Z,42.22
2023-03-11T05:18:56.929Z,42.52
2023-03-11T05:19:59.283Z,42.62
2023-03-11T05:21:01.697Z,42.62
2023-03-11T05:22:05.386Z,41.38
2023-03-11T05:23:07.773Z,39.68
2023-03-11T05:24:10.166Z,38.50
2023-03-11T05:25:12.889Z,38.70
2023-03-11T05:26:15.235Z,39.12
2023-03-11T05:27:21.291Z,39.55
2023-03-11T05:28:23.756Z,40.03
2023-03-11T05:29:26.642Z,40.60
2023-03-11T05:30:29.085Z,41.13
2023-03-11T05:31:31.567Z,41.68
2023-03-11T05:32:33.993Z,42.07
2023-03-11T05:33:37.138Z,42.30
2023-03-11T05:34:39.636Z,42.31
2023-03-11T05:35:42.901Z,42.36
2023-03-11T05:36:45.609Z,42.88
2023-03-11T05:37:49.836Z,42.58
2023-03-11T05:38:53.357Z,42.89
2023-03-11T05:39:55.802Z,43.09
2023-03-11T05:40:58.147Z,43.30
2023-03-11T05:42:01.182Z,43.54
2023-03-11T05:43:03.873Z,43.64
2023-03-11T05:44:06.299Z,43.99
2023-03-11T05:45:09.757Z,43.92
2023-03-11T05:46:12.437Z,44.04
2023-03-11T05:47:16.826Z,44.09
2023-03-11T05:48:19.187Z,44.58
2023-03-11T05:49:21.799Z,44.42
2023-03-11T05:50:24.250Z,44.74
2023-03-11T05:51:26.708Z,44.70
2023-03-11T05:52:30.681Z,45.04
2023-03-11T05:53:33.026Z,45.05
2023-03-11T05:54:35.499Z,44.64
2023-03-11T05:55:37.877Z,44.13
2023-03-11T05:56:40.369Z,44.24
2023-03-11T05:57:42.744Z,44.41
2023-03-11T05:58:45.456Z,44.41
2023-03-11T05:59:47.861Z,44.28
2023-03-11T06:00:50.255Z,44.37
2023-03-11T06:01:52.626Z,44.82
2023-03-11T06:02:55.524Z,44.99
2023-03-11T06:03:57.995Z,45.38
2023-03-11T06:05:00.455Z,45.61
2023-03-11T06:06:02.932Z,46.10
2023-03-11T06:07:05.296Z,46.53
2023-03-11T06:08:07.658Z,46.76
2023-03-11T06:09:14.350Z,46.87
2023-03-11T06:10:16.995Z,47.30
2023-03-11T06:11:19.492Z,47.42
2023-03-11T06:12:21.862Z,47.71
2023-03-11T06:13:24.183Z,47.82
2023-03-11T06:14:28.905Z,47.70
2023-03-11T06:15:32.669Z,46.80
2023-03-11T06:16:35.116Z,45.88
2023-03-11T06:17:37.530Z,45.54
2023-03-11T06:18:39.865Z,45.80
2023-03-11T06:19:42.286Z,45.76
2023-03-11T06:20:44.620Z,45.19
2023-03-11T06:21:46.988Z,45.78
2023-03-11T06:22:49.826Z,45.88
2023-03-11T06:23:52.504Z,45.94
2023-03-11T06:24:54.824Z,46.18
2023-03-11T06:26:03.462Z,45.91
2023-03-11T06:27:05.945Z,45.94
2023-03-11T06:28:08.718Z,45.98
2023-03-11T06:29:15.303Z,45.22
2023-03-11T06:30:18.518Z,44.78
2023-03-11T06:31:26.331Z,44.76
2023-03-11T06:32:29.798Z,44.66
2023-03-11T06:33:32.324Z,45.08
2023-03-11T06:34:34.689Z,45.63
2023-03-11T06:35:37.131Z,46.01
2023-03-11T06:36:39.654Z,46.29
2023-03-11T06:37:42.013Z,46.52
2023-03-11T06:38:46.517Z,46.74
2023-03-11T06:39:52.488Z,47.20
2023-03-11T06:40:54.872Z,47.32
2023-03-11T06:41:57.232Z,47.09
2023-03-11T06:42:59.695Z,47.22
2023-03-11T06:44:02.420Z,47.48
2023-03-11T06:45:05.082Z,47.18
2023-03-11T06:46:12.560Z,46.96
2023-03-11T06:47:14.902Z,46.87
2023-03-11T06:48:17.301Z,46.73
2023-03-11T06:49:19.903Z,46.98
2023-03-11T06:50:24.064Z,47.14
2023-03-11T06:51:26.466Z,47.60
2023-03-11T06:52:28.813Z,47.55
2023-03-11T06:53:31.208Z,47.14
2023-03-11T06:54:33.546Z,47.12
2023-03-11T06:55:36.200Z,46.80
2023-03-11T06:56:38.789Z,46.75
2023-03-11T06:57:41.195Z,46.76
2023-03-11T06:58:43.681Z,46.72
2023-03-11T06:59:46.042Z,46.45
2023-03-11T07:00:48.441Z,46.35
2023-03-11T07:01:50.806Z,46.24
2023-03-11T07:02:53.147Z,46.14
2023-03-11T07:03:55.542Z,46.10
2023-03-11T07:04:57.900Z,46.37
2023-03-11T07:06:00.527Z,46.42
2023-03-11T07:07:02.917Z,45.86
2023-03-11T07:08:05.351Z,45.75
2023-03-11T07:09:07.807Z,45.55
2023-03-11T07:10:10.701Z,44.51
2023-03-11T07:11:19.173Z,43.95
2023-03-11T07:12:23.207Z,44.44
2023-03-11T07:13:25.568Z,44.69
2023-03-11T07:14:27.990Z,45.23
2023-03-11T07:15:30.327Z,45.26
2023-03-11T07:16:32.822Z,45.70
2023-03-11T07:17:36.001Z,45.57
2023-03-11T07:18:38.690Z,46.17
2023-03-11T07:19:41.216Z,46.04
2023-03-11T07:20:43.550Z,45.37
2023-03-11T07:21:45.895Z,45.63
2023-03-11T07:22:48.225Z,45.74
2023-03-11T07:23:55.110Z,45.14
2023-03-11T07:24:57.559Z,45.23
2023-03-11T07:25:59.911Z,44.14
2023-03-11T07:27:02.229Z,44.02
2023-03-11T07:28:04.753Z,44.55
2023-03-11T07:29:07.122Z,44.32
2023-03-11T07:30:10.105Z,43.38
2023-03-11T07:31:16.639Z,43.41
2023-03-11T07:32:19.156Z,43.51
2023-03-11T07:33:24.064Z,44.09
2023-03-11T07:34:26.378Z,44.62
2023-03-11T07:35:28.769Z,44.36
2023-03-11T07:36:32.191Z,44.90
2023-03-11T07:37:34.511Z,44.82
2023-03-11T07:38:37.036Z,44.10
2023-03-11T07:39:39.568Z,44.18
2023-03-11T07:40:42.066Z,43.87
2023-03-11T07:41:45.211Z,42.84
2023-03-11T07:42:47.590Z,42.98
2023-03-11T07:43:50.038Z,43.49
2023-03-11T07:44:52.402Z,44.12
2023-03-11T07:46:04.938Z,44.67
2023-03-11T07:47:07.776Z,44.34
2023-03-11T07:48:10.146Z,44.71
2023-03-11T07:49:13.075Z,44.54
2023-03-11T07:50:17.276Z,43.91
2023-03-11T07:51:27.930Z,43.71
2023-03-11T07:52:32.012Z,43.38
2023-03-11T07:53:34.774Z,43.92
2023-03-11T07:54:37.220Z,44.11
2023-03-11T07:55:39.593Z,43.63
2023-03-11T07:56:42.188Z,43.06
2023-03-11T07:57:47.489Z,43.07
2023-03-11T07:58:50.603Z,43.39
2023-03-11T07:59:52.978Z,43.47
2023-03-11T08:00:56.952Z,42.94
2023-03-11T08:01:59.358Z,42.43
2023-03-11T08:03:01.773Z,41.88
2023-03-11T08:04:06.431Z,41.99
2023-03-11T08:05:09.173Z,42.42
2023-03-11T08:06:13.165Z,43.23
2023-03-11T08:07:15.595Z,43.25
2023-03-11T08:08:17.941Z,42.23
2023-03-11T08:09:20.250Z,42.46
2023-03-11T08:10:22.641Z,43.18
2023-03-11T08:11:25.640Z,42.44
2023-03-11T08:12:27.989Z,42.38
2023-03-11T08:13:30.428Z,42.72
2023-03-11T08:14:32.734Z,43.19
2023-03-11T08:15:37.054Z,42.69
2023-03-11T08:16:40.263Z,42.59
2023-03-11T08:17:42.676Z,42.43
2023-03-11T08:18:46.566Z,43.13
2023-03-11T08:19:51.972Z,43.66
2023-03-11T08:20:55.638Z,43.98
2023-03-11T08:21:58.010Z,43.94
2023-03-11T08:23:00.410Z,43.42
2023-03-11T08:24:04.522Z,43.30
2023-03-11T08:25:08.717Z,43.10
2023-03-11T08:26:14.413Z,42.78
2023-03-11T08:27:16.782Z,42.78
2023-03-11T08:28:19.164Z,42.10
2023-03-11T08:29:21.613Z,41.82
2023-03-11T08:30:24.077Z,41.92
2023-03-11T08:31:29.732Z,42.10
2023-03-11T08:32:32.286Z,42.37
2023-03-11T08:33:34.688Z,42.94
2023-03-11T08:34:39.415Z,43.33
2023-03-11T08:35:41.929Z,43.51
2023-03-11T08:36:44.412Z,42.82
2023-03-11T08:37:46.780Z,42.94
2023-03-11T08:38:49.227Z,42.69
2023-03-11T08:39:51.651Z,42.53
2023-03-11T08:40:53.973Z,42.27
2023-03-11T08:41:56.392Z,42.33
2023-03-11T08:42:58.788Z,42.35
2023-03-11T08:44:01.381Z,42.25
2023-03-11T08:45:04.390Z,42.69
2023-03-11T08:46:07.299Z,42.63
2023-03-11T08:47:09.997Z,42.01
2023-03-11T08:48:13.204Z,42.17
2023-03-11T08:49:15.627Z,42.03
2023-03-11T08:50:19.163Z,42.42
2023-03-11T08:51:22.694Z,42.84
2023-03-11T08:52:25.042Z,42.19
2023-03-11T08:53:27.441Z,42.31
2023-03-11T08:54:29.886Z,42.03
2023-03-11T08:55:32.284Z,42.71
2023-03-11T08:56:34.679Z,42.96
2023-03-11T08:57:38.301Z,42.67
2023-03-11T08:58:40.694Z,42.02
2023-03-11T08:59:43.070Z,41.60
2023-03-11T09:00:45.602Z,42.13
2023-03-11T09:01:47.965Z,42.75
2023-03-11T09:02:50.369Z,43.13
2023-03-11T09:03:52.745Z,43.38
2023-03-11T09:04:55.121Z,42.90
2023-03-11T09:05:59.097Z,42.47
2023-03-11T09:07:01.526Z,42.74
2023-03-11T09:08:05.746Z,42.71
2023-03-11T09:09:08.204Z,41.90
2023-03-11T09:10:14.551Z,41.91
2023-03-11T09:11:17.608Z,41.33
2023-03-11T09:12:20.027Z,41.90
2023-03-11T09:13:22.749Z,41.75
2023-03-11T09:14:25.152Z,41.54
2023-03-11T09:15:27.869Z,42.04
2023-03-11T09:16:30.263Z,42.36
2023-03-11T09:17:32.797Z,42.06
2023-03-11T09:18:35.153Z,41.91
2023-03-11T09:19:38.365Z,41.91
2023-03-11T09:20:41.538Z,41.26
2023-03-11T09:21:43.936Z,40.61
2023-03-11T09:22:46.568Z,40.38
2023-03-11T09:23:49.001Z,40.30
2023-03-11T09:24:51.339Z,40.73
2023-03-11T09:25:53.897Z,40.67
2023-03-11T09:26:56.250Z,40.12
2023-03-11T09:27:58.628Z,40.04
2023-03-11T09:29:00.978Z,40.32
2023-03-11T09:30:03.704Z,40.34
2023-03-11T09:31:06.366Z,39.46
2023-03-11T09:32:12.900Z,40.16
2023-03-11T09:33:15.402Z,40.73
2023-03-11T09:34:17.728Z,40.46
2023-03-11T09:35:20.133Z,40.79
2023-03-11T09:36:23.211Z,40.85
2023-03-11T09:37:25.602Z,41.09
2023-03-11T09:38:27.907Z,41.17
2023-03-11T09:39:30.393Z,41.38
2023-03-11T09:40:49.406Z,41.64
2023-03-11T09:42:12.810Z,41.49
2023-03-11T09:43:44.475Z,39.77
2023-03-11T09:45:05.562Z,39.75
2023-03-11T09:46:22.727Z,39.23
2023-03-11T09:47:30.951Z,39.23
2023-03-11T09:49:00.998Z,39.62
2023-03-11T09:50:11.922Z,40.15
2023-03-11T09:51:30.133Z,40.01
2023-03-11T09:52:50.900Z,40.18
2023-03-11T09:54:03.904Z,40.10
2023-03-11T09:55:22.155Z,40.82
2023-03-11T09:56:25.254Z,41.02
2023-03-11T09:57:34.886Z,41.74
2023-03-11T09:58:40.237Z,41.74
2023-03-11T09:59:43.837Z,41.95
2023-03-11T10:00:47.806Z,41.62
2023-03-11T10:01:51.451Z,41.94
2023-03-11T10:02:53.983Z,40.24
2023-03-11T10:04:00.696Z,39.66
2023-03-11T10:05:16.061Z,39.90
2023-03-11T10:06:26.603Z,39.65
2023-03-11T10:07:34.107Z,40.28
2023-03-11T10:08:55.467Z,39.78
2023-03-11T10:09:58.972Z,40.42
2023-03-11T10:11:17.348Z,39.90
2023-03-11T10:12:49.205Z,39.75
2023-03-11T10:13:51.520Z,40.19
2023-03-11T10:15:09.593Z,39.70
2023-03-11T10:16:33.605Z,39.64
2023-03-11T10:17:54.276Z,40.03
2023-03-11T10:19:25.141Z,40.34
2023-03-11T10:20:39.772Z,39.21
2023-03-11T10:21:56.406Z,39.34
2023-03-11T10:23:17.280Z,38.51
2023-03-11T10:24:33.980Z,38.87
2023-03-11T10:25:57.243Z,37.79
2023-03-11T10:27:04.122Z,38.54
2023-03-11T10:28:18.084Z,38.81
2023-03-11T10:29:27.171Z,39.31
2023-03-11T10:30:41.469Z,39.57
2023-03-11T10:31:50.423Z,38.82
2023-03-11T10:33:02.121Z,38.93
2023-03-11T10:34:18.513Z,39.35
2023-03-11T10:35:47.293Z,39.31
2023-03-11T10:37:06.992Z,39.13
2023-03-11T10:38:20.469Z,38.99
2023-03-11T10:39:23.615Z,39.19
2023-03-11T10:40:37.540Z,39.41
2023-03-11T10:41:46.613Z,39.52
2023-03-11T10:42:50.162Z,39.60
2023-03-11T10:44:00.965Z,39.46
2023-03-11T10:45:04.982Z,39.11
2023-03-11T10:46:18.743Z,39.15
2023-03-11T10:47:24.442Z,39.15
2023-03-11T10:48:26.961Z,39.09
2023-03-11T10:49:29.634Z,39.28
2023-03-11T10:50:36.508Z,40.02
2023-03-11T10:51:40.126Z,39.53
2023-03-11T10:53:04.304Z,39.20
2023-03-11T10:54:06.682Z,38.77
2023-03-11T10:55:09.299Z,38.65
2023-03-11T10:56:37.496Z,38.52
2023-03-11T10:57:39.953Z,38.86
2023-03-11T10:58:49.272Z,38.67
2023-03-11T11:00:09.753Z,37.86
2023-03-11T11:01:16.787Z,38.49
2023-03-11T11:02:42.640Z,38.74
2023-03-11T11:03:50.010Z,39.18
2023-03-11T11:05:28.304Z,39.44
2023-03-11T11:06:37.213Z,39.49
2023-03-11T11:07:42.402Z,39.39
2023-03-11T11:09:11.567Z,39.25
2023-03-11T11:10:21.942Z,39.83
2023-03-11T11:11:45.509Z,39.87
2023-03-11T11:13:00.871Z,39.76
2023-03-11T11:14:03.190Z,39.65
2023-03-11T11:15:06.153Z,39.31
2023-03-11T11:16:20.903Z,38.89
2023-03-11T11:17:32.190Z,39.38
2023-03-11T11:18:44.564Z,38.99
2023-03-11T11:19:49.018Z,39.36
2023-03-11T11:20:56.365Z,39.17
2023-03-11T11:22:04.528Z,39.30
2023-03-11T11:23:11.037Z,39.44
2023-03-11T11:24:29.113Z,39.47
2023-03-11T11:25:39.152Z,40.15
2023-03-11T11:26:41.814Z,40.65
2023-03-11T11:27:56.152Z,41.02
2023-03-11T11:29:10.533Z,41.14
2023-03-11T11:30:17.699Z,40.89
2023-03-11T11:31:25.228Z,40.59
2023-03-11T11:32:27.715Z,40.23
2023-03-11T11:33:40.963Z,40.13
2023-03-11T11:34:43.381Z,40.77
2023-03-11T11:35:51.968Z,40.84
2023-03-11T11:36:54.902Z,40.83
2023-03-11T11:38:01.915Z,41.37
2023-03-11T11:39:16.326Z,41.58
2023-03-11T11:40:24.443Z,41.67
2023-03-11T11:41:29.224Z,40.83
2023-03-11T11:42:31.566Z,40.47
2023-03-11T11:43:56.010Z,41.02
2023-03-11T11:45:07.313Z,41.27
2023-03-11T11:46:21.896Z,41.24
2023-03-11T11:47:28.523Z,41.03
2023-03-11T11:48:55.899Z,41.19
2023-03-11T11:50:02.092Z,39.95
2023-03-11T11:51:16.899Z,39.46
2023-03-11T11:52:25.204Z,39.23
2023-03-11T11:53:44.431Z,39.92
2023-03-11T11:54:59.377Z,40.35
2023-03-11T11:56:01.901Z,39.66
2023-03-11T11:57:19.266Z,39.96
2023-03-11T11:58:22.231Z,39.35
2023-03-11T11:59:25.166Z,39.40
2023-03-11T12:00:51.711Z,39.31
2023-03-11T12:02:28.467Z,39.81
2023-03-11T12:03:45.634Z,39.78
2023-03-11T12:04:59.322Z,39.31
2023-03-11T12:06:11.005Z,39.89
2023-03-11T12:07:17.467Z,39.98
2023-03-11T12:08:42.797Z,39.98
2023-03-11T12:10:23.420Z,40.07
2023-03-11T12:11:57.787Z,40.49
2023-03-11T12:13:21.237Z,40.86
2023-03-11T12:14:52.652Z,40.63
2023-03-11T12:15:57.572Z,40.65
2023-03-11T12:17:04.956Z,40.73
2023-03-11T12:18:15.813Z,40.68
2023-03-11T12:19:30.533Z,40.90
2023-03-11T12:20:37.578Z,40.75
2023-03-11T12:21:59.463Z,40.80
2023-03-11T12:23:16.887Z,40.39
2023-03-11T12:24:30.931Z,40.86
2023-03-11T12:25:54.216Z,41.03
2023-03-11T12:27:03.574Z,40.62
2023-03-11T12:28:14.789Z,40.38
2023-03-11T12:29:34.458Z,40.34
2023-03-11T12:30:45.109Z,40.37
2023-03-11T12:31:48.245Z,40.20
2023-03-11T12:32:56.964Z,40.67
2023-03-11T12:34:03.196Z,40.77
2023-03-11T12:35:21.859Z,40.52
2023-03-11T12:36:30.286Z,40.55
2023-03-11T12:37:33.037Z,40.71
2023-03-11T12:38:40.454Z,40.33
2023-03-11T12:39:42.825Z,40.28
2023-03-11T12:40:45.131Z,39.64
2023-03-11T12:41:47.586Z,39.69
2023-03-11T12:42:49.929Z,39.83
2023-03-11T12:43:52.248Z,40.03
2023-03-11T12:56:44.014Z,34.90
2023-03-11T12:57:46.300Z,36.91
2023-03-11T12:59:03.943Z,37.73
2023-03-11T13:00:18.410Z,37.93
2023-03-11T13:01:39.402Z,38.25
2023-03-11T13:03:19.144Z,38.34
2023-03-11T13:04:31.785Z,38.92
2023-03-11T13:06:24.364Z,39.33
2023-03-11T13:07:35.968Z,39.12
2023-03-11T13:08:59.056Z,39.30
2023-03-11T13:10:07.248Z,39.42
2023-03-11T13:11:34.470Z,39.61
2023-03-11T13:12:43.472Z,39.18
2023-03-11T13:13:45.860Z,38.48
2023-03-11T13:14:48.318Z,38.09
2023-03-11T13:15:52.714Z,38.27
2023-03-11T13:16:56.794Z,38.23
2023-03-11T13:18:23.371Z,38.11
2023-03-11T13:19:34.586Z,38.39
2023-03-11T13:20:42.738Z,38.36
2023-03-11T13:21:45.207Z,38.71
2023-03-11T13:22:53.244Z,39.14
2023-03-11T13:24:25.943Z,38.68
2023-03-11T13:25:32.940Z,38.68
2023-03-11T13:26:40.953Z,38.88
2023-03-11T13:27:46.712Z,39.28
2023-03-11T13:29:01.873Z,39.24
2023-03-11T13:30:11.757Z,39.13
2023-03-11T13:31:27.041Z,39.32
2023-03-11T13:32:35.589Z,39.61
2023-03-11T13:33:53.505Z,38.74
2023-03-11T13:35:32.865Z,38.10
2023-03-11T13:37:09.685Z,38.06
2023-03-11T13:38:27.049Z,38.18
2023-03-11T13:39:55.114Z,38.36
2023-03-11T13:40:58.323Z,38.03
2023-03-11T13:42:00.895Z,37.90
2023-03-11T13:43:05.974Z,38.24
2023-03-11T13:44:22.755Z,38.54
2023-03-11T13:45:29.964Z,38.91
2023-03-11T13:46:40.776Z,39.02
2023-03-11T13:47:46.534Z,38.82
2023-03-11T13:48:51.100Z,38.46
2023-03-11T13:50:10.175Z,38.99
2023-03-11T13:51:44.973Z,39.27
2023-03-11T13:52:55.728Z,39.46
2023-03-11T13:54:03.351Z,39.95
2023-03-11T13:55:07.083Z,40.13
2023-03-11T13:56:23.400Z,39.81
2023-03-11T13:57:32.218Z,39.16
2023-03-11T13:58:34.603Z,39.72
2023-03-11T13:59:36.990Z,40.17
2023-03-11T14:00:48.820Z,40.49
2023-03-11T14:01:53.254Z,40.28
2023-03-11T14:02:59.652Z,40.43
2023-03-11T14:04:02.079Z,40.91
2023-03-11T14:05:07.202Z,41.15
2023-03-11T14:06:15.670Z,41.36
2023-03-11T14:07:29.421Z,40.87
2023-03-11T14:08:41.448Z,40.51
2023-03-11T14:09:43.800Z,39.90
2023-03-11T14:10:54.996Z,39.83
2023-03-11T14:12:04.917Z,39.99
2023-03-11T14:13:16.181Z,40.14
2023-03-11T14:14:35.857Z,40.39
2023-03-11T14:15:54.027Z,40.68
2023-03-11T14:16:57.037Z,40.64
2023-03-11T14:18:51.694Z,40.47
2023-03-11T14:20:11.473Z,40.58
2023-03-11T14:21:19.692Z,40.72
2023-03-11T14:22:22.068Z,40.30
2023-03-11T14:23:29.431Z,40.70